National Weather Service Raw Text Product

Displaying AFOS PIL: TAFMCW Received: 2017-11-15 05:20 UTC


412 
FTUS43 KDMX 150520
TAFMCW
TAF
KMCW 150520Z 1506/1606 20009KT 3SM BR VCSH OVC003
     FM150900 29011KT P6SM OVC011
     FM151100 30014G21KT P6SM BKN014
     FM151400 31017G24KT P6SM BKN020
     FM160400 33010KT P6SM SCT025=